Time;durP1;ratioP1;P1;durP2;ratioP2;P2;SDS_P1;SDS_P2;PMS_P1;PMS_P2;Temp;Humidity;BMP_temperature;BMP_pressure;BME280_temperature;BME280_humidity;BME280_pressure;Samples;Min_cycle;Max_cycle;Signal;HPM_P1;HPM_P2
2023/07/24 00:02:20;;;;;;;11.32;6.38;;;;;;;;;;5037206;28;20360;-68
2023/07/24 00:05:06;;;;;;;10.57;6.15;;;;;;;;;;5037166;28;20037;-76
2023/07/24 00:07:51;;;;;;;11.27;6.65;;;;;;;;;;5034271;28;20106;-77
2023/07/24 00:10:36;;;;;;;12.15;6.40;;;;;;;;;;5035043;28;20044;-77
2023/07/24 00:13:21;;;;;;;10.45;5.95;;;;;;;;;;5014351;28;20376;-77
2023/07/24 00:16:07;;;;;;;10.93;6.40;;;;;;;;;;5036790;28;20093;-76
2023/07/24 00:18:52;;;;;;;10.25;5.85;;;;;;;;;;5037192;28;20100;-78
2023/07/24 00:21:38;;;;;;;13.30;7.15;;;;;;;;;;5036433;28;20115;-77
2023/07/24 00:24:23;;;;;;;10.75;6.53;;;;;;;;;;5011729;28;20517;-70
2023/07/24 00:27:08;;;;;;;14.55;6.65;;;;;;;;;;5035686;28;20033;-69
2023/07/24 00:29:53;;;;;;;11.55;7.15;;;;;;;;;;5032805;28;20036;-70
2023/07/24 00:32:39;;;;;;;11.50;5.82;;;;;;;;;;5024999;28;20201;-69
2023/07/24 00:35:25;;;;;;;13.23;7.30;;;;;;;;;;5036095;28;20430;-70
2023/07/24 00:38:10;;;;;;;14.02;7.63;;;;;;;;;;5019281;28;20061;-69
2023/07/24 00:40:55;;;;;;;11.48;5.85;;;;;;;;;;5022578;28;20029;-70
2023/07/24 00:43:41;;;;;;;10.77;6.57;;;;;;;;;;5030005;28;20041;-70
2023/07/24 00:46:26;;;;;;;12.30;6.68;;;;;;;;;;5026703;28;20440;-70
2023/07/24 00:49:12;;;;;;;11.30;6.55;;;;;;;;;;5030440;28;20033;-74
2023/07/24 00:51:57;;;;;;;12.93;8.05;;;;;;;;;;5028409;28;20037;-69
2023/07/24 00:54:43;;;;;;;13.18;6.72;;;;;;;;;;5024751;28;20029;-70
2023/07/24 00:57:28;;;;;;;11.23;6.20;;;;;;;;;;5032666;28;20471;-73
2023/07/24 01:00:14;;;;;;;9.57;5.82;;;;;;;;;;5021455;28;20032;-70
2023/07/24 01:02:59;;;;;;;10.38;5.78;;;;;;;;;;5034969;28;20051;-70
2023/07/24 01:05:45;;;;;;;12.45;7.20;;;;;;;;;;5034158;28;20033;-70
2023/07/24 01:08:30;;;;;;;11.90;6.60;;;;;;;;;;5029234;28;20029;-69
2023/07/24 01:11:19;;;;;;;11.00;6.30;;;;;;;;;;5032013;28;20033;-69
2023/07/24 01:14:04;;;;;;;;;;;;;;;;;;5036122;28;20090;-69
2023/07/24 01:16:52;;;;;;;12.00;6.78;;;;;;;;;;5021567;28;19920;-68
2023/07/24 01:19:42;;;;;;;10.52;5.72;;;;;;;;;;5035695;28;20037;-69
2023/07/24 01:22:27;;;;;;;10.32;6.32;;;;;;;;;;5023562;28;20112;-68
2023/07/24 01:25:26;;;;;;;12.57;7.07;;;;;;;;;;5032332;28;20548;-72
2023/07/24 01:28:12;;;;;;;12.68;7.57;;;;;;;;;;5035350;28;20041;-71
2023/07/24 01:30:57;;;;;;;11.07;6.38;;;;;;;;;;5025884;28;20435;-70
2023/07/24 01:33:45;;;;;;;9.45;5.90;;;;;;;;;;5030551;28;20036;-71
2023/07/24 01:36:31;;;;;;;12.13;6.82;;;;;;;;;;5032823;28;20504;-71
2023/07/24 01:39:17;;;;;;;11.70;6.53;;;;;;;;;;5022463;28;20079;-70
2023/07/24 01:42:02;;;;;;;12.60;6.15;;;;;;;;;;5048285;28;20033;-72
2023/07/24 01:44:54;;;;;;;10.45;6.53;;;;;;;;;;5021076;28;20041;-70
2023/07/24 01:47:39;;;;;;;12.55;6.28;;;;;;;;;;5024678;28;20043;-71
2023/07/24 01:50:24;;;;;;;10.50;5.55;;;;;;;;;;5030779;28;20025;-71
2023/07/24 01:53:10;;;;;;;11.13;6.72;;;;;;;;;;5023007;28;20107;-68
2023/07/24 01:55:55;;;;;;;12.15;6.30;;;;;;;;;;5034994;28;20490;-71
2023/07/24 01:58:40;;;;;;;11.45;7.53;;;;;;;;;;5034717;28;20037;-71
2023/07/24 02:01:25;;;;;;;13.88;6.95;;;;;;;;;;5023852;28;20034;-71
2023/07/24 02:04:11;;;;;;;13.65;6.72;;;;;;;;;;5030333;28;20123;-71
2023/07/24 02:06:56;;;;;;;12.68;7.40;;;;;;;;;;5035053;28;20040;-70
2023/07/24 02:09:41;;;;;;;12.18;6.97;;;;;;;;;;5025913;28;20361;-70
2023/07/24 02:12:26;;;;;;;11.50;6.28;;;;;;;;;;5026768;28;20067;-76
2023/07/24 02:15:11;;;;;;;11.02;6.88;;;;;;;;;;5020519;28;20502;-78
2023/07/24 02:17:57;;;;;;;13.63;7.72;;;;;;;;;;5026403;28;20566;-77
2023/07/24 02:20:48;;;;;;;11.77;7.40;;;;;;;;;;5007964;28;20036;-76
2023/07/24 02:23:33;;;;;;;10.65;6.45;;;;;;;;;;5033597;28;20029;-76
2023/07/24 02:26:18;;;;;;;12.88;7.07;;;;;;;;;;5023896;28;20444;-76
2023/07/24 02:29:03;;;;;;;11.07;6.15;;;;;;;;;;5034402;28;20476;-66
2023/07/24 02:31:49;;;;;;;11.00;6.53;;;;;;;;;;5034211;28;20276;-69
2023/07/24 02:34:34;;;;;;;13.05;6.82;;;;;;;;;;5034003;28;20072;-70
2023/07/24 02:37:20;;;;;;;10.73;6.57;;;;;;;;;;5034377;28;20064;-70
2023/07/24 02:40:05;;;;;;;13.35;7.28;;;;;;;;;;5030589;28;20124;-71
2023/07/24 02:42:50;;;;;;;11.23;6.57;;;;;;;;;;5033996;28;20048;-71
2023/07/24 02:45:39;;;;;;;12.45;7.22;;;;;;;;;;5018912;28;20041;-70
2023/07/24 02:48:24;;;;;;;15.35;8.05;;;;;;;;;;5029859;28;20423;-67
2023/07/24 02:51:09;;;;;;;10.20;6.25;;;;;;;;;;5033931;28;20036;-66
2023/07/24 02:53:55;;;;;;;9.98;5.97;;;;;;;;;;5033661;28;20025;-67
2023/07/24 02:56:40;;;;;;;10.77;7.10;;;;;;;;;;5029794;28;20571;-67
2023/07/24 02:59:25;;;;;;;12.57;7.60;;;;;;;;;;5020409;28;20041;-66
2023/07/24 03:02:10;;;;;;;11.30;6.82;;;;;;;;;;5027858;28;20033;-66
2023/07/24 03:04:55;;;;;;;10.98;6.35;;;;;;;;;;5033686;28;20060;-66
2023/07/24 03:07:41;;;;;;;11.32;6.50;;;;;;;;;;5020709;28;20029;-65
2023/07/24 03:10:26;;;;;;;11.98;6.47;;;;;;;;;;5031388;28;20048;-71
2023/07/24 03:13:11;;;;;;;10.07;6.43;;;;;;;;;;5034015;28;20036;-72
2023/07/24 03:15:57;;;;;;;11.93;6.25;;;;;;;;;;5015398;28;20446;-71
2023/07/24 03:18:43;;;;;;;13.00;7.05;;;;;;;;;;5033450;28;20041;-71
2023/07/24 03:21:28;;;;;;;12.80;7.03;;;;;;;;;;5018481;28;20036;-71
2023/07/24 03:24:13;;;;;;;12.30;7.13;;;;;;;;;;5027130;28;20067;-65
2023/07/24 03:27:00;;;;;;;10.98;6.68;;;;;;;;;;5023147;28;20442;-71
2023/07/24 03:29:45;;;;;;;12.98;7.50;;;;;;;;;;5033814;28;20446;-70
2023/07/24 03:32:30;;;;;;;10.38;6.20;;;;;;;;;;5000420;28;20082;-71
2023/07/24 03:35:15;;;;;;;12.80;7.25;;;;;;;;;;5032303;28;20040;-70
2023/07/24 03:38:00;;;;;;;10.70;6.22;;;;;;;;;;5020289;28;20036;-71
2023/07/24 03:40:47;;;;;;;11.43;6.15;;;;;;;;;;5015586;28;20064;-71
2023/07/24 03:43:32;;;;;;;10.43;6.28;;;;;;;;;;5020974;28;20027;-72
2023/07/24 03:46:17;;;;;;;10.98;6.45;;;;;;;;;;5033721;28;20033;-71
2023/07/24 03:49:02;;;;;;;10.45;6.80;;;;;;;;;;5026126;28;20383;-71
2023/07/24 03:51:48;;;;;;;11.05;6.47;;;;;;;;;;5023024;28;20037;-71
2023/07/24 03:54:33;;;;;;;11.00;6.63;;;;;;;;;;5036835;28;20052;-71
2023/07/24 03:57:18;;;;;;;11.07;6.70;;;;;;;;;;5031178;28;20515;-71
2023/07/24 04:00:04;;;;;;;10.70;6.50;;;;;;;;;;5020126;28;20124;-71
2023/07/24 04:02:49;;;;;;;14.05;7.85;;;;;;;;;;5025739;28;20056;-75
2023/07/24 04:05:35;;;;;;;14.45;7.70;;;;;;;;;;5024287;28;20040;-65
2023/07/24 04:08:20;;;;;;;13.00;7.93;;;;;;;;;;5036647;28;20043;-67
2023/07/24 04:11:06;;;;;;;13.13;8.13;;;;;;;;;;5023490;28;20479;-66
2023/07/24 04:13:51;;;;;;;11.30;7.15;;;;;;;;;;5035669;28;20047;-66
2023/07/24 04:16:36;;;;;;;11.90;6.93;;;;;;;;;;5019060;28;20057;-66
2023/07/24 04:19:21;;;;;;;13.57;7.95;;;;;;;;;;5027580;28;20634;-70
2023/07/24 04:22:06;;;;;;;11.75;7.05;;;;;;;;;;5022954;28;20036;-65
2023/07/24 04:24:52;;;;;;;12.32;7.43;;;;;;;;;;5031064;28;20045;-65
2023/07/24 04:27:37;;;;;;;13.80;7.65;;;;;;;;;;5036064;28;20095;-66
2023/07/24 04:30:22;;;;;;;14.90;8.10;;;;;;;;;;5035150;28;20032;-66
2023/07/24 04:33:08;;;;;;;13.02;7.35;;;;;;;;;;5025305;28;20132;-65
2023/07/24 04:35:54;;;;;;;12.70;7.68;;;;;;;;;;5027128;28;20039;-66
2023/07/24 04:38:39;;;;;;;12.23;6.43;;;;;;;;;;5022433;28;20048;-76
2023/07/24 04:41:25;;;;;;;11.63;7.18;;;;;;;;;;5029295;28;20035;-67
2023/07/24 04:44:10;;;;;;;10.63;5.97;;;;;;;;;;5022305;28;20037;-66
2023/07/24 04:46:55;;;;;;;12.05;6.85;;;;;;;;;;5022216;28;20418;-66
2023/07/24 04:49:40;;;;;;;12.25;7.22;;;;;;;;;;5036539;28;20053;-67
2023/07/24 04:52:26;;;;;;;11.75;6.70;;;;;;;;;;5023374;28;20112;-67
2023/07/24 04:55:11;;;;;;;10.65;5.93;;;;;;;;;;5034159;28;20074;-66
2023/07/24 04:57:56;;;;;;;11.57;7.43;;;;;;;;;;5016050;28;20065;-70
2023/07/24 05:00:41;;;;;;;11.05;6.93;;;;;;;;;;5029516;28;20037;-70
2023/07/24 05:03:26;;;;;;;11.80;6.80;;;;;;;;;;5004608;28;20116;-70
2023/07/24 05:06:12;;;;;;;11.93;7.50;;;;;;;;;;5035870;28;20041;-71
2023/07/24 05:08:57;;;;;;;14.65;6.68;;;;;;;;;;5026462;28;20056;-69
2023/07/24 05:11:44;;;;;;;13.18;7.55;;;;;;;;;;5035288;28;20406;-70
2023/07/24 05:14:29;;;;;;;14.05;7.40;;;;;;;;;;5022665;28;20037;-76
2023/07/24 05:17:15;;;;;;;10.80;6.32;;;;;;;;;;5022859;28;20468;-69
2023/07/24 05:20:01;;;;;;;11.93;6.70;;;;;;;;;;5032385;28;20152;-69
2023/07/24 05:22:48;;;;;;;12.65;7.22;;;;;;;;;;5027224;28;20052;-69
2023/07/24 05:25:33;;;;;;;11.27;6.70;;;;;;;;;;5035428;28;20087;-68
2023/07/24 05:28:19;;;;;;;13.05;6.60;;;;;;;;;;5008251;28;20116;-69
2023/07/24 05:31:04;;;;;;;13.52;7.45;;;;;;;;;;5025692;28;20037;-70
2023/07/24 05:33:49;;;;;;;11.10;6.50;;;;;;;;;;5021873;28;20108;-71
2023/07/24 05:36:35;;;;;;;11.35;6.20;;;;;;;;;;5032224;28;20494;-70
2023/07/24 05:39:20;;;;;;;12.85;7.75;;;;;;;;;;5025566;28;20284;-70
2023/07/24 05:42:05;;;;;;;12.57;6.88;;;;;;;;;;5033397;28;20048;-71
2023/07/24 05:44:50;;;;;;;17.20;8.02;;;;;;;;;;5033145;28;20120;-69
2023/07/24 05:47:35;;;;;;;15.00;7.18;;;;;;;;;;5025314;28;20539;-70
2023/07/24 05:50:21;;;;;;;10.88;6.47;;;;;;;;;;5028063;28;20278;-71
2023/07/24 05:53:06;;;;;;;10.48;6.43;;;;;;;;;;5001049;28;20033;-76
2023/07/24 05:55:58;;;;;;;14.43;6.72;;;;;;;;;;5028130;28;20171;-78
2023/07/24 05:58:44;;;;;;;15.65;7.60;;;;;;;;;;5028918;28;20419;-75
2023/07/24 06:01:29;;;;;;;10.80;6.55;;;;;;;;;;5023516;28;20037;-76
2023/07/24 06:04:14;;;;;;;12.60;7.40;;;;;;;;;;5017311;28;20032;-75
2023/07/24 06:06:59;;;;;;;15.07;8.55;;;;;;;;;;5031288;28;20033;-74
2023/07/24 06:09:44;;;;;;;16.38;8.45;;;;;;;;;;5026947;28;20044;-70
2023/07/24 06:12:30;;;;;;;17.48;9.10;;;;;;;;;;5030239;28;20400;-70
2023/07/24 06:15:15;;;;;;;15.90;7.05;;;;;;;;;;5029469;28;20064;-72
2023/07/24 06:18:00;;;;;;;14.02;7.15;;;;;;;;;;5031910;28;20445;-73
2023/07/24 06:20:45;;;;;;;15.98;6.85;;;;;;;;;;5023151;28;20075;-71
2023/07/24 06:23:30;;;;;;;14.88;7.53;;;;;;;;;;5020916;28;20104;-71
2023/07/24 06:26:16;;;;;;;13.25;7.63;;;;;;;;;;5029952;28;20211;-70
2023/07/24 06:29:01;;;;;;;14.48;7.30;;;;;;;;;;5019328;28;20045;-75
2023/07/24 06:31:46;;;;;;;12.32;7.07;;;;;;;;;;5015540;28;20043;-69
2023/07/24 06:34:31;;;;;;;11.48;6.80;;;;;;;;;;5034187;28;20028;-70
2023/07/24 06:37:16;;;;;;;13.77;6.63;;;;;;;;;;5014173;28;20069;-70
2023/07/24 06:40:02;;;;;;;12.10;6.55;;;;;;;;;;5010595;28;20056;-69
2023/07/24 06:42:47;;;;;;;14.52;7.70;;;;;;;;;;5032790;28;20107;-70
2023/07/24 06:45:33;;;;;;;11.70;7.03;;;;;;;;;;5025180;28;20060;-70
2023/07/24 06:48:18;;;;;;;14.35;6.70;;;;;;;;;;5019068;28;20553;-76
2023/07/24 06:51:03;;;;;;;12.07;7.13;;;;;;;;;;5027558;28;20075;-68
2023/07/24 06:53:48;;;;;;;12.63;7.45;;;;;;;;;;5031264;28;20033;-64
2023/07/24 06:56:33;;;;;;;13.25;8.18;;;;;;;;;;5033500;28;20494;-66
2023/07/24 06:59:19;;;;;;;13.45;7.32;;;;;;;;;;5020699;28;20112;-63
2023/07/24 07:02:04;;;;;;;14.02;7.22;;;;;;;;;;5015981;28;20037;-65
2023/07/24 07:04:49;;;;;;;13.98;8.05;;;;;;;;;;5017708;28;20033;-75
2023/07/24 07:07:34;;;;;;;13.32;6.60;;;;;;;;;;5033117;28;20116;-67
2023/07/24 07:10:19;;;;;;;12.80;8.07;;;;;;;;;;5033058;28;20095;-67
2023/07/24 07:13:05;;;;;;;14.68;7.45;;;;;;;;;;5023598;28;20356;-67
2023/07/24 07:15:50;;;;;;;13.70;6.55;;;;;;;;;;5018619;28;20041;-67
2023/07/24 07:18:35;;;;;;;12.73;7.30;;;;;;;;;;5045701;28;20383;-67
2023/07/24 07:21:20;;;;;;;15.23;7.40;;;;;;;;;;5034424;28;20048;-66
2023/07/24 07:24:06;;;;;;;12.07;6.60;;;;;;;;;;5029929;28;20064;-67
2023/07/24 07:26:51;;;;;;;14.50;8.40;;;;;;;;;;5037428;28;20044;-68
2023/07/24 07:29:36;;;;;;;12.98;6.65;;;;;;;;;;5026609;28;20121;-67
2023/07/24 07:32:21;;;;;;;11.63;6.90;;;;;;;;;;5015216;28;20040;-68
2023/07/24 07:35:07;;;;;;;13.88;7.10;;;;;;;;;;5033629;28;20036;-68
2023/07/24 07:37:52;;;;;;;11.77;7.72;;;;;;;;;;5025116;28;20045;-68
2023/07/24 07:40:38;;;;;;;13.57;7.85;;;;;;;;;;5026440;28;20382;-66
2023/07/24 07:43:24;;;;;;;13.32;7.38;;;;;;;;;;5022169;28;20033;-67
2023/07/24 07:46:09;;;;;;;12.75;8.07;;;;;;;;;;5035910;28;20539;-68
2023/07/24 07:48:54;;;;;;;11.68;7.40;;;;;;;;;;5036323;28;20033;-68
2023/07/24 07:51:39;;;;;;;12.60;7.28;;;;;;;;;;5035042;28;20485;-67
2023/07/24 07:54:24;;;;;;;14.80;8.57;;;;;;;;;;5020201;28;20098;-67
2023/07/24 07:57:10;;;;;;;11.70;7.47;;;;;;;;;;5021615;28;20033;-68
2023/07/24 07:59:55;;;;;;;12.85;7.70;;;;;;;;;;5025285;28;20091;-76
2023/07/24 08:02:43;;;;;;;13.68;8.40;;;;;;;;;;5019403;28;20051;-75
2023/07/24 08:05:28;;;;;;;13.73;8.15;;;;;;;;;;5033600;28;20033;-75
2023/07/24 08:08:14;;;;;;;12.93;6.80;;;;;;;;;;5025270;28;20033;-76
2023/07/24 08:11:03;;;;;;;15.50;7.55;;;;;;;;;;5017144;28;20107;-76
2023/07/24 08:13:48;;;;;;;;;;;;;;;;;;5036546;28;20407;-77
2023/07/24 08:16:33;;;;;;;11.90;7.20;;;;;;;;;;5015339;28;19960;-78
2023/07/24 08:19:18;;;;;;;17.52;7.95;;;;;;;;;;5030146;28;20037;-69
2023/07/24 08:22:05;;;;;;;13.00;7.80;;;;;;;;;;5031655;28;20530;-75
2023/07/24 08:24:51;;;;;;;15.27;9.30;;;;;;;;;;5043914;28;20044;-76
2023/07/24 08:27:36;;;;;;;13.77;8.73;;;;;;;;;;5029006;28;20128;-74
2023/07/24 08:30:21;;;;;;;14.30;8.48;;;;;;;;;;5035651;28;20098;-75
2023/07/24 08:33:06;;;;;;;16.58;8.02;;;;;;;;;;5030912;28;20045;-75
2023/07/24 08:36:02;;;;;;;16.45;8.48;;;;;;;;;;5036191;28;20044;-75
2023/07/24 08:38:47;;;;;;;15.25;7.32;;;;;;;;;;5022140;28;20379;-72
2023/07/24 08:41:34;;;;;;;19.02;8.82;;;;;;;;;;5031719;28;20025;-71
2023/07/24 08:44:20;;;;;;;15.65;7.10;;;;;;;;;;5027268;28;20036;-70
2023/07/24 08:47:09;;;;;;;14.48;7.82;;;;;;;;;;5029020;28;20059;-71
2023/07/24 08:49:54;;;;;;;13.57;8.55;;;;;;;;;;5026289;28;20641;-72
2023/07/24 08:52:39;;;;;;;12.52;7.50;;;;;;;;;;5024400;28;20108;-72
2023/07/24 08:55:25;;;;;;;13.77;7.43;;;;;;;;;;5018235;28;20187;-66
2023/07/24 08:58:11;;;;;;;12.00;7.55;;;;;;;;;;5026861;28;20069;-67
2023/07/24 09:00:56;;;;;;;13.57;7.72;;;;;;;;;;5035917;28;20505;-65
2023/07/24 09:03:41;;;;;;;12.20;7.32;;;;;;;;;;5027645;28;20077;-67
2023/07/24 09:06:27;;;;;;;19.95;9.15;;;;;;;;;;5034724;28;20452;-67
2023/07/24 09:09:15;;;;;;;11.20;7.25;;;;;;;;;;5031301;28;20435;-67
2023/07/24 09:12:00;;;;;;;14.52;7.50;;;;;;;;;;5031382;28;20032;-67
2023/07/24 09:14:46;;;;;;;14.98;7.05;;;;;;;;;;5032779;28;20465;-70
2023/07/24 09:17:34;;;;;;;12.23;6.53;;;;;;;;;;5025202;28;20483;-70
2023/07/24 09:20:19;;;;;;;16.02;7.85;;;;;;;;;;5029677;28;20060;-70
2023/07/24 09:23:04;;;;;;;13.38;6.50;;;;;;;;;;5035445;28;20032;-71
2023/07/24 09:25:50;;;;;;;11.32;6.43;;;;;;;;;;5019874;28;20402;-70
2023/07/24 09:28:35;;;;;;;14.43;7.22;;;;;;;;;;5033487;28;20036;-71
2023/07/24 09:31:20;;;;;;;12.77;6.05;;;;;;;;;;5031166;28;20025;-70
2023/07/24 09:34:13;;;;;;;10.10;6.00;;;;;;;;;;5025254;28;20047;-65
2023/07/24 09:36:58;;;;;;;10.45;6.25;;;;;;;;;;5033390;28;20044;-70
2023/07/24 09:39:46;;;;;;;14.10;7.22;;;;;;;;;;5034131;28;20040;-72
2023/07/24 09:42:32;;;;;;;10.80;7.10;;;;;;;;;;5045269;28;20397;-70
2023/07/24 09:45:17;;;;;;;10.10;5.35;;;;;;;;;;5014983;28;20124;-71
2023/07/24 09:48:02;;;;;;;9.57;6.03;;;;;;;;;;5026896;28;20082;-70
2023/07/24 09:50:48;;;;;;;11.50;6.57;;;;;;;;;;5033799;28;20491;-76
2023/07/24 09:53:38;;;;;;;10.68;6.00;;;;;;;;;;5032012;28;20041;-66
2023/07/24 09:56:23;;;;;;;11.43;6.40;;;;;;;;;;5021489;28;20087;-66
2023/07/24 09:59:10;;;;;;;11.43;6.30;;;;;;;;;;5027658;28;20464;-67
2023/07/24 10:01:55;;;;;;;9.15;5.28;;;;;;;;;;5028773;28;20115;-67
2023/07/24 10:04:41;;;;;;;9.30;6.00;;;;;;;;;;5034315;28;20133;-67
2023/07/24 10:07:27;;;;;;;9.75;5.80;;;;;;;;;;5034495;28;20403;-67
2023/07/24 10:10:12;;;;;;;10.45;5.38;;;;;;;;;;5021487;28;20084;-75
2023/07/24 10:12:58;;;;;;;8.18;5.65;;;;;;;;;;5029712;28;20496;-65
2023/07/24 10:15:43;;;;;;;9.80;5.50;;;;;;;;;;5027613;28;20044;-66
2023/07/24 10:18:32;;;;;;;9.68;5.85;;;;;;;;;;5034754;28;20036;-65
2023/07/24 10:21:17;;;;;;;8.07;5.00;;;;;;;;;;5033874;28;20025;-66
2023/07/24 10:24:02;;;;;;;9.30;5.72;;;;;;;;;;5026584;28;20032;-66
2023/07/24 10:26:48;;;;;;;9.73;5.50;;;;;;;;;;5026304;28;20519;-70
2023/07/24 10:29:36;;;;;;;12.27;5.85;;;;;;;;;;5034666;28;20033;-68
2023/07/24 10:32:22;;;;;;;8.73;5.68;;;;;;;;;;5021332;28;20041;-77
2023/07/24 10:35:10;;;;;;;9.02;5.38;;;;;;;;;;5018628;28;20033;-77
2023/07/24 10:37:59;;;;;;;10.25;5.40;;;;;;;;;;5021180;28;20033;-76
2023/07/24 10:40:45;;;;;;;10.77;6.78;;;;;;;;;;5034357;28;20482;-77
2023/07/24 10:43:41;;;;;;;10.55;5.88;;;;;;;;;;5024402;28;20107;-77
2023/07/24 10:46:35;;;;;;;12.45;6.15;;;;;;;;;;5027416;28;20036;-65
2023/07/24 10:49:21;;;;;;;9.98;6.18;;;;;;;;;;5023489;28;20044;-71
2023/07/24 10:52:06;;;;;;;12.25;6.78;;;;;;;;;;5041340;28;20401;-69
2023/07/24 10:54:52;;;;;;;11.95;6.30;;;;;;;;;;5034484;28;20277;-71
2023/07/24 10:57:37;;;;;;;11.13;6.25;;;;;;;;;;5026663;28;20040;-69
2023/07/24 11:00:22;;;;;;;11.88;6.03;;;;;;;;;;5031833;28;20036;-70
2023/07/24 11:03:11;;;;;;;14.07;6.85;;;;;;;;;;5027652;28;20064;-71
2023/07/24 11:05:57;;;;;;;10.98;6.18;;;;;;;;;;5033224;28;20060;-66
2023/07/24 11:08:50;;;;;;;16.13;6.88;;;;;;;;;;5011296;28;20040;-69
2023/07/24 11:11:35;;;;;;;15.73;7.65;;;;;;;;;;5037414;28;20056;-70
2023/07/24 11:14:21;;;;;;;13.25;6.85;;;;;;;;;;5015972;28;20037;-70
2023/07/24 11:17:07;;;;;;;7.50;5.25;;;;;;;;;;5001871;28;20488;-69
2023/07/24 11:19:52;;;;;;;10.18;5.75;;;;;;;;;;5029521;28;20119;-69
2023/07/24 11:22:38;;;;;;;12.63;6.35;;;;;;;;;;5033436;28;20476;-74
2023/07/24 11:25:23;;;;;;;11.02;5.78;;;;;;;;;;5014562;28;20037;-75
2023/07/24 11:28:10;;;;;;;12.90;6.97;;;;;;;;;;5015250;28;20029;-77
2023/07/24 11:31:01;;;;;;;11.98;6.53;;;;;;;;;;5013422;28;20044;-76
2023/07/24 11:33:48;;;;;;;11.55;6.70;;;;;;;;;;5024392;28;20041;-75
2023/07/24 11:36:33;;;;;;;9.43;5.72;;;;;;;;;;5015251;28;20036;-76
2023/07/24 11:39:22;;;;;;;12.65;6.70;;;;;;;;;;5033284;28;20044;-75
2023/07/24 11:42:08;;;;;;;12.63;7.18;;;;;;;;;;5021800;28;20041;-66
2023/07/24 11:44:53;;;;;;;10.48;6.57;;;;;;;;;;5020631;28;20040;-71
2023/07/24 11:47:45;;;;;;;10.07;6.63;;;;;;;;;;5019053;28;20349;-70
2023/07/24 11:50:41;;;;;;;11.40;6.50;;;;;;;;;;5032255;28;20017;-70
2023/07/24 11:53:28;;;;;;;12.15;6.25;;;;;;;;;;5029760;28;20045;-71
2023/07/24 11:56:14;;;;;;;9.90;6.07;;;;;;;;;;5014647;28;20072;-71
2023/07/24 11:59:15;;;;;;;12.27;6.57;;;;;;;;;;5030281;28;20060;-75
2023/07/24 12:02:00;;;;;;;10.00;5.57;;;;;;;;;;5031127;28;20464;-71
2023/07/24 12:04:46;;;;;;;10.38;5.97;;;;;;;;;;5009645;28;20484;-71
2023/07/24 12:07:32;;;;;;;11.00;5.72;;;;;;;;;;5023156;28;20047;-70
2023/07/24 12:10:27;;;;;;;10.90;5.53;;;;;;;;;;5022998;28;20140;-71
2023/07/24 12:13:12;;;;;;;10.75;6.32;;;;;;;;;;5036650;28;20561;-71
2023/07/24 12:15:58;;;;;;;13.07;6.20;;;;;;;;;;5029381;28;20162;-69
2023/07/24 12:18:43;;;;;;;10.98;6.50;;;;;;;;;;5028959;28;20323;-67
2023/07/24 12:21:28;;;;;;;11.45;5.10;;;;;;;;;;5016806;28;20091;-64
2023/07/24 12:24:13;;;;;;;9.70;6.25;;;;;;;;;;5030121;28;20025;-66
2023/07/24 12:26:59;;;;;;;9.30;5.97;;;;;;;;;;5036301;28;20119;-67
2023/07/24 12:29:44;;;;;;;8.75;5.20;;;;;;;;;;5023462;28;20033;-65
2023/07/24 12:32:29;;;;;;;11.55;6.43;;;;;;;;;;5027443;28;20113;-65
2023/07/24 12:35:15;;;;;;;10.55;6.50;;;;;;;;;;5020756;28;20061;-65
2023/07/24 12:38:00;;;;;;;10.73;6.18;;;;;;;;;;5036907;28;20055;-69
2023/07/24 12:40:46;;;;;;;8.40;4.90;;;;;;;;;;5015755;23;20042;-71
2023/07/24 12:43:31;;;;;;;11.52;5.70;;;;;;;;;;5001829;28;20036;-69
2023/07/24 12:46:16;;;;;;;12.73;6.30;;;;;;;;;;4999939;28;20128;-70
2023/07/24 12:49:01;;;;;;;12.30;6.65;;;;;;;;;;5012914;28;20036;-69
2023/07/24 12:51:47;;;;;;;10.15;6.03;;;;;;;;;;5013470;28;20052;-69
2023/07/24 12:54:32;;;;;;;8.45;4.80;;;;;;;;;;5014343;28;20025;-71
2023/07/24 12:57:17;;;;;;;10.90;5.97;;;;;;;;;;5015205;28;20149;-74
2023/07/24 13:00:04;;;;;;;8.02;5.47;;;;;;;;;;5016547;28;20376;-69
2023/07/24 13:02:50;;;;;;;15.77;6.00;;;;;;;;;;5016307;28;20117;-68
2023/07/24 13:05:35;;;;;;;9.95;4.55;;;;;;;;;;5015567;28;20447;-67
2023/07/24 13:08:21;;;;;;;9.20;5.53;;;;;;;;;;5016156;28;20030;-69
2023/07/24 13:11:07;;;;;;;10.65;5.90;;;;;;;;;;5016466;28;20089;-70
2023/07/24 13:13:52;;;;;;;9.88;5.50;;;;;;;;;;5015370;28;20029;-74
2023/07/24 13:16:37;;;;;;;10.15;5.50;;;;;;;;;;5016035;28;20029;-74
2023/07/24 13:19:22;;;;;;;9.55;5.28;;;;;;;;;;5015784;28;20056;-73
2023/07/24 13:22:08;;;;;;;9.50;5.97;;;;;;;;;;5002380;28;20030;-74
2023/07/24 13:24:53;;;;;;;9.57;5.45;;;;;;;;;;5015404;28;20029;-74
2023/07/24 13:27:38;;;;;;;9.25;5.25;;;;;;;;;;5014791;28;20032;-73
2023/07/24 13:30:23;;;;;;;7.57;4.75;;;;;;;;;;5000258;28;20460;-74
2023/07/24 13:33:08;;;;;;;8.98;5.22;;;;;;;;;;5015647;28;20033;-69
2023/07/24 13:35:54;;;;;;;9.38;5.20;;;;;;;;;;5015521;28;20032;-71
2023/07/24 13:38:40;;;;;;;7.53;4.75;;;;;;;;;;5029710;28;20224;-71
2023/07/24 13:41:25;;;;;;;7.28;3.92;;;;;;;;;;5027990;28;20063;-75
2023/07/24 13:44:10;;;;;;;8.88;5.15;;;;;;;;;;5030068;28;20447;-72
2023/07/24 13:46:56;;;;;;;6.82;4.53;;;;;;;;;;5028834;28;20227;-72
2023/07/24 13:49:41;;;;;;;8.75;4.53;;;;;;;;;;5033521;28;20377;-72
2023/07/24 13:52:26;;;;;;;7.32;4.68;;;;;;;;;;5017117;28;20045;-73
2023/07/24 13:55:13;;;;;;;7.45;4.72;;;;;;;;;;5034445;28;20044;-73
2023/07/24 13:57:58;;;;;;;7.00;4.03;;;;;;;;;;5030300;28;20460;-73
2023/07/24 14:00:43;;;;;;;8.82;4.40;;;;;;;;;;5034950;28;20052;-73
2023/07/24 14:03:29;;;;;;;7.35;4.22;;;;;;;;;;5034241;28;20468;-71
2023/07/24 14:06:14;;;;;;;7.10;4.82;;;;;;;;;;5026511;28;20094;-73
2023/07/24 14:08:59;;;;;;;6.35;4.20;;;;;;;;;;5030308;28;20025;-73
2023/07/24 14:11:44;;;;;;;7.82;4.13;;;;;;;;;;5026601;28;20041;-73
2023/07/24 14:14:29;;;;;;;7.93;4.68;;;;;;;;;;5032477;28;20074;-73
2023/07/24 14:17:15;;;;;;;7.57;4.40;;;;;;;;;;5026292;28;20061;-73
2023/07/24 14:20:00;;;;;;;8.30;4.47;;;;;;;;;;5031800;28;20025;-72
2023/07/24 14:22:46;;;;;;;7.18;4.10;;;;;;;;;;5025963;28;20040;-73
2023/07/24 14:25:31;;;;;;;7.18;4.18;;;;;;;;;;5027976;28;20064;-73
2023/07/24 14:28:16;;;;;;;10.75;4.45;;;;;;;;;;5021826;28;20491;-69
2023/07/24 14:31:01;;;;;;;7.03;4.00;;;;;;;;;;5033822;28;20120;-69
2023/07/24 14:33:47;;;;;;;7.15;3.75;;;;;;;;;;5034256;28;20041;-67
2023/07/24 14:36:33;;;;;;;6.82;3.78;;;;;;;;;;5018550;28;20037;-71
2023/07/24 14:39:18;;;;;;;6.82;4.03;;;;;;;;;;5029744;28;20029;-69
2023/07/24 14:42:04;;;;;;;3.83;2.63;;;;;;;;;;5020163;28;20102;-68
2023/07/24 14:44:49;;;;;;;7.93;3.80;;;;;;;;;;5027167;28;20477;-71
2023/07/24 14:47:34;;;;;;;8.27;4.28;;;;;;;;;;5022746;28;20113;-73
2023/07/24 14:50:20;;;;;;;5.55;3.40;;;;;;;;;;5016454;28;20021;-72
2023/07/24 14:53:05;;;;;;;5.07;3.63;;;;;;;;;;5012839;28;20074;-73
2023/07/24 14:55:50;;;;;;;6.30;3.97;;;;;;;;;;5001613;28;20033;-73
2023/07/24 14:58:35;;;;;;;6.72;3.95;;;;;;;;;;5015622;28;20043;-73
2023/07/24 15:01:20;;;;;;;5.65;3.83;;;;;;;;;;5034653;28;20392;-74
2023/07/24 15:04:06;;;;;;;7.60;3.72;;;;;;;;;;5033517;28;20025;-70
2023/07/24 15:06:51;;;;;;;6.05;4.03;;;;;;;;;;5019691;28;20782;-75
2023/07/24 15:09:36;;;;;;;6.25;3.25;;;;;;;;;;5020787;28;20083;-76
2023/07/24 15:12:21;;;;;;;6.10;3.20;;;;;;;;;;5027368;28;20379;-75
2023/07/24 15:15:07;;;;;;;6.93;3.80;;;;;;;;;;5034178;28;20471;-75
2023/07/24 15:17:52;;;;;;;6.20;3.55;;;;;;;;;;5034022;28;20086;-74
2023/07/24 15:20:37;;;;;;;4.68;3.25;;;;;;;;;;5032867;28;20075;-75
2023/07/24 15:23:23;;;;;;;9.15;3.78;;;;;;;;;;5032071;28;20029;-69
2023/07/24 15:26:08;;;;;;;6.57;3.58;;;;;;;;;;5022465;28;20479;-68
2023/07/24 15:28:53;;;;;;;6.30;3.40;;;;;;;;;;5027456;28;20124;-69
2023/07/24 15:31:40;;;;;;;8.90;3.63;;;;;;;;;;5027761;28;20112;-69
2023/07/24 15:34:25;;;;;;;6.13;3.80;;;;;;;;;;5027166;28;20044;-69
2023/07/24 15:37:11;;;;;;;10.30;4.70;;;;;;;;;;5021015;28;20499;-69
2023/07/24 15:39:59;;;;;;;6.30;3.63;;;;;;;;;;5031096;28;20086;-71
2023/07/24 15:42:46;;;;;;;7.13;3.40;;;;;;;;;;5012392;28;20087;-70
2023/07/24 15:45:31;;;;;;;5.50;3.38;;;;;;;;;;5031259;28;20041;-77
2023/07/24 15:48:16;;;;;;;4.82;3.10;;;;;;;;;;5030831;28;20284;-76
2023/07/24 15:51:02;;;;;;;7.15;3.65;;;;;;;;;;5013333;28;20043;-75
2023/07/24 15:53:48;;;;;;;6.95;3.63;;;;;;;;;;5036471;28;20041;-75
2023/07/24 15:56:33;;;;;;;5.30;3.10;;;;;;;;;;5037789;28;20051;-74
2023/07/24 15:59:18;;;;;;;5.55;3.55;;;;;;;;;;5034510;28;20100;-74
2023/07/24 16:02:04;;;;;;;5.28;3.13;;;;;;;;;;5034576;28;20116;-70
2023/07/24 16:04:50;;;;;;;7.60;4.25;;;;;;;;;;5036671;28;20044;-70
2023/07/24 16:07:35;;;;;;;9.60;3.78;;;;;;;;;;5031555;28;20373;-69
2023/07/24 16:10:20;;;;;;;6.38;3.90;;;;;;;;;;5035796;28;20584;-71
2023/07/24 16:13:05;;;;;;;7.80;3.67;;;;;;;;;;5022201;28;20082;-69
2023/07/24 16:15:51;;;;;;;8.15;3.83;;;;;;;;;;5037108;28;20345;-70
2023/07/24 16:18:36;;;;;;;5.97;3.58;;;;;;;;;;5034141;28;20380;-74
2023/07/24 16:21:25;;;;;;;7.97;3.95;;;;;;;;;;5023589;28;20110;-73
2023/07/24 16:24:10;;;;;;;7.07;3.47;;;;;;;;;;5036131;28;20078;-74